createdAt,value
2022-11-26T00:00:54.106Z,39.17
2022-11-26T00:01:55.771Z,32.63
2022-11-26T00:02:57.972Z,33.60
2022-11-26T00:04:03.066Z,29.55
2022-11-26T00:05:05.035Z,27.35
2022-11-26T00:06:28.742Z,37.72
2022-11-26T00:07:32.955Z,28.45
2022-11-26T00:08:35.733Z,31.83
2022-11-26T00:09:37.856Z,33.47
2022-11-26T00:10:39.550Z,28.92
2022-11-26T00:11:41.604Z,27.08
2022-11-26T00:12:43.325Z,33.08
2022-11-26T00:13:45.142Z,24.15
2022-11-26T00:14:47.268Z,30.00
2022-11-26T00:15:49.789Z,30.02
2022-11-26T00:16:51.579Z,28.98
2022-11-26T00:17:54.189Z,24.83
2022-11-26T00:18:55.879Z,20.20
2022-11-26T00:19:57.450Z,32.28
2022-11-26T00:21:00.912Z,28.25
2022-11-26T00:22:02.585Z,32.20
2022-11-26T00:23:04.664Z,25.30
2022-11-26T00:24:26.101Z,31.73
2022-11-26T00:25:43.148Z,37.92
2022-11-26T00:26:44.711Z,33.67
2022-11-26T00:27:46.732Z,26.60
2022-11-26T00:29:01.214Z,34.70
2022-11-26T00:30:13.729Z,39.05
2022-11-26T00:31:16.790Z,29.58
2022-11-26T00:32:21.207Z,38.33
2022-11-26T00:33:24.052Z,34.88
2022-11-26T00:34:25.637Z,27.48
2022-11-26T00:35:27.266Z,39.13
2022-11-26T00:36:31.850Z,30.90
2022-11-26T00:37:57.347Z,39.00
2022-11-26T00:39:01.220Z,24.95
2022-11-26T00:40:02.883Z,37.47
2022-11-26T00:41:04.745Z,30.13
2022-11-26T00:42:06.306Z,26.92
2022-11-26T00:43:12.146Z,30.00
2022-11-26T00:44:22.333Z,31.13
2022-11-26T00:45:27.562Z,28.17
2022-11-26T00:46:29.418Z,31.55
2022-11-26T00:47:31.022Z,29.92
2022-11-26T00:48:32.615Z,31.20
2022-11-26T00:49:34.222Z,31.73
2022-11-26T00:50:41.288Z,27.45
2022-11-26T00:51:43.495Z,41.22
2022-11-26T00:52:47.397Z,34.20
2022-11-26T00:53:50.572Z,32.95
2022-11-26T00:54:52.190Z,30.10
2022-11-26T00:55:53.835Z,29.38
2022-11-26T00:56:56.186Z,28.98
2022-11-26T00:57:58.433Z,24.67
2022-11-26T00:59:00.032Z,33.25
2022-11-26T01:00:01.927Z,33.08
2022-11-26T01:01:03.593Z,37.30
2022-11-26T01:02:05.265Z,35.42
2022-11-26T01:03:06.992Z,28.50
2022-11-26T01:04:08.678Z,31.92
2022-11-26T01:05:10.444Z,33.13
2022-11-26T01:06:20.170Z,29.60
2022-11-26T01:07:21.885Z,29.23
2022-11-26T01:08:35.972Z,32.88
2022-11-26T01:09:38.548Z,37.05
2022-11-26T01:10:40.133Z,35.40
2022-11-26T01:11:41.714Z,33.55
2022-11-26T01:12:43.395Z,38.28
2022-11-26T01:13:46.895Z,35.10
2022-11-26T01:14:48.503Z,35.08
2022-11-26T01:15:50.183Z,36.42
2022-11-26T01:16:54.909Z,32.72
2022-11-26T01:17:56.727Z,35.25
2022-11-26T01:19:00.021Z,37.78
2022-11-26T01:20:01.713Z,34.65
2022-11-26T01:21:03.389Z,35.90
2022-11-26T01:22:04.988Z,41.78
2022-11-26T01:23:09.261Z,38.55
2022-11-26T01:24:10.917Z,27.83
2022-11-26T01:25:12.506Z,46.58
2022-11-26T01:26:28.614Z,35.42
2022-11-26T01:27:30.269Z,34.75
2022-11-26T01:28:31.914Z,31.90
2022-11-26T01:29:33.503Z,38.70
2022-11-26T01:30:35.224Z,37.10
2022-11-26T01:31:36.866Z,32.80
2022-11-26T01:32:38.493Z,35.28
2022-11-26T01:33:40.195Z,31.35
2022-11-26T01:34:41.811Z,33.50
2022-11-26T01:35:43.578Z,31.67
2022-11-26T01:36:45.182Z,42.00
2022-11-26T01:37:48.244Z,34.90
2022-11-26T01:38:52.532Z,33.35
2022-11-26T01:39:54.106Z,39.65
2022-11-26T01:41:16.524Z,28.42
2022-11-26T01:42:24.595Z,35.42
2022-11-26T01:43:33.161Z,29.85
2022-11-26T01:44:37.132Z,37.70
2022-11-26T01:45:39.130Z,31.20
2022-11-26T01:46:40.919Z,35.25
2022-11-26T01:47:42.874Z,36.17
2022-11-26T01:48:45.700Z,31.50
2022-11-26T01:50:24.520Z,29.20
2022-11-26T01:51:27.716Z,33.05
2022-11-26T01:52:29.299Z,35.63
2022-11-26T01:53:43.418Z,31.50
2022-11-26T01:54:45.688Z,32.90
2022-11-26T01:55:54.233Z,31.38
2022-11-26T01:56:58.790Z,27.13
2022-11-26T01:58:00.586Z,34.47
2022-11-26T01:59:10.726Z,27.77
2022-11-26T02:00:13.045Z,33.38
2022-11-26T02:01:14.989Z,29.67
2022-11-26T02:02:17.755Z,33.60
2022-11-26T02:03:20.008Z,30.65
2022-11-26T02:04:24.426Z,36.97
2022-11-26T02:05:31.504Z,30.33
2022-11-26T02:06:34.545Z,28.63
2022-11-26T02:07:36.761Z,26.15
2022-11-26T02:08:38.695Z,34.03
2022-11-26T02:09:40.939Z,32.30
2022-11-26T02:10:42.654Z,33.17
2022-11-26T02:11:45.050Z,27.92
2022-11-26T02:12:47.497Z,31.75
2022-11-26T02:13:54.154Z,35.35
2022-11-26T02:14:55.885Z,30.67
2022-11-26T02:16:07.835Z,33.30
2022-11-26T02:17:12.384Z,32.13
2022-11-26T02:18:14.819Z,37.80
2022-11-26T02:19:45.337Z,33.28
2022-11-26T02:20:59.991Z,31.25
2022-11-26T02:22:26.369Z,34.55
2022-11-26T02:23:46.954Z,31.75
2022-11-26T02:25:11.210Z,32.60
2022-11-26T02:26:37.343Z,27.90
2022-11-26T02:27:49.920Z,25.75
2022-11-26T02:29:00.104Z,29.77
2022-11-26T02:30:10.570Z,26.92
2022-11-26T02:31:17.338Z,39.58
2022-11-26T02:32:26.091Z,30.98
2022-11-26T02:33:53.848Z,29.63
2022-11-26T02:35:12.600Z,25.55
2022-11-26T02:36:31.921Z,23.73
2022-11-26T02:37:46.768Z,21.80
2022-11-26T02:38:48.475Z,29.50
2022-11-26T02:39:51.394Z,32.72
2022-11-26T02:40:53.231Z,33.08
2022-11-26T02:41:57.977Z,30.23
2022-11-26T02:42:59.662Z,31.13
2022-11-26T02:44:01.413Z,37.58
2022-11-26T02:45:11.412Z,27.08
2022-11-26T02:46:18.650Z,35.50
2022-11-26T02:47:21.682Z,32.83
2022-11-26T02:48:27.556Z,32.30
2022-11-26T02:49:30.482Z,28.08
2022-11-26T02:50:54.107Z,34.35
2022-11-26T02:51:59.645Z,29.90
2022-11-26T02:53:02.452Z,29.15
2022-11-26T02:54:06.458Z,35.35
2022-11-26T02:55:10.450Z,36.33
2022-11-26T02:56:17.246Z,36.28
2022-11-26T02:57:21.334Z,37.03
2022-11-26T02:58:22.950Z,28.17
2022-11-26T02:59:24.793Z,27.23
2022-11-26T03:00:26.591Z,37.45
2022-11-26T03:01:37.156Z,30.50
2022-11-26T03:02:46.389Z,36.80
2022-11-26T03:03:50.743Z,30.63
2022-11-26T03:04:57.997Z,39.90
2022-11-26T03:06:05.592Z,28.60
2022-11-26T03:07:09.601Z,30.17
2022-11-26T03:08:11.452Z,36.35
2022-11-26T03:09:15.581Z,36.75
2022-11-26T03:10:20.200Z,29.45
2022-11-26T03:11:22.112Z,34.25
2022-11-26T03:12:24.515Z,25.58
2022-11-26T03:13:26.269Z,28.00
2022-11-26T03:14:27.873Z,33.30
2022-11-26T03:15:29.469Z,39.85
2022-11-26T03:16:31.110Z,31.30
2022-11-26T03:17:32.822Z,30.80
2022-11-26T03:18:34.477Z,35.50
2022-11-26T03:19:36.061Z,32.80
2022-11-26T03:20:37.642Z,28.63
2022-11-26T03:21:39.216Z,28.58
2022-11-26T03:22:41.070Z,26.63
2022-11-26T03:23:42.681Z,31.77
2022-11-26T03:24:44.346Z,35.22
2022-11-26T03:25:46.030Z,25.25
2022-11-26T03:26:47.587Z,36.22
2022-11-26T03:27:49.152Z,23.73
2022-11-26T03:28:50.726Z,26.45
2022-11-26T03:29:52.382Z,31.73
2022-11-26T03:30:53.989Z,37.80
2022-11-26T03:31:56.233Z,25.77
2022-11-26T03:32:58.048Z,30.83
2022-11-26T03:33:59.634Z,28.52
2022-11-26T03:35:01.294Z,25.55
2022-11-26T03:36:03.206Z,24.42
2022-11-26T03:37:04.777Z,26.38
2022-11-26T03:38:06.368Z,23.10
2022-11-26T03:39:07.946Z,28.50
2022-11-26T03:40:09.998Z,28.30
2022-11-26T03:41:11.755Z,25.35
2022-11-26T03:42:13.366Z,26.27
2022-11-26T03:43:14.962Z,19.33
2022-11-26T03:44:16.533Z,25.83
2022-11-26T03:45:18.209Z,23.45
2022-11-26T03:46:20.173Z,29.73
2022-11-26T03:47:21.933Z,30.02
2022-11-26T03:48:23.582Z,26.08
2022-11-26T03:49:25.212Z,22.05
2022-11-26T03:50:26.827Z,26.42
2022-11-26T03:51:28.421Z,23.08
2022-11-26T03:52:29.980Z,24.80
2022-11-26T03:53:31.832Z,20.60
2022-11-26T03:54:33.404Z,26.52
2022-11-26T03:55:35.234Z,24.08
2022-11-26T03:56:36.895Z,30.23
2022-11-26T03:57:38.793Z,21.67
2022-11-26T03:58:40.656Z,28.85
2022-11-26T03:59:42.272Z,26.48
2022-11-26T04:00:43.953Z,18.85
2022-11-26T04:01:45.797Z,23.98
2022-11-26T04:02:47.553Z,20.42
2022-11-26T04:03:49.178Z,31.58
2022-11-26T04:04:51.106Z,22.38
2022-11-26T04:05:52.674Z,29.85
2022-11-26T04:06:54.260Z,26.23
2022-11-26T04:07:55.910Z,25.65
2022-11-26T04:08:57.559Z,30.52
2022-11-26T04:09:59.175Z,24.02
2022-11-26T04:11:00.788Z,26.92
2022-11-26T04:12:02.449Z,28.15
2022-11-26T04:13:04.085Z,29.13
2022-11-26T04:14:05.692Z,33.67
2022-11-26T04:15:07.941Z,40.38
2022-11-26T04:16:09.982Z,41.00
2022-11-26T04:17:12.062Z,33.05
2022-11-26T04:18:13.779Z,24.10
2022-11-26T04:19:15.356Z,26.27
2022-11-26T04:20:17.108Z,25.83
2022-11-26T04:21:18.719Z,44.88
2022-11-26T04:22:20.341Z,20.60
2022-11-26T04:23:22.263Z,30.70
2022-11-26T04:24:24.091Z,30.95
2022-11-26T04:25:26.217Z,31.40
2022-11-26T04:26:28.057Z,24.75
2022-11-26T04:27:29.687Z,27.13
2022-11-26T04:28:31.328Z,30.63
2022-11-26T04:29:32.924Z,27.20
2022-11-26T04:30:34.516Z,30.90
2022-11-26T04:31:36.478Z,29.50
2022-11-26T04:32:39.838Z,36.10
2022-11-26T04:33:42.279Z,27.52
2022-11-26T04:34:43.877Z,35.55
2022-11-26T04:35:45.519Z,37.80
2022-11-26T04:36:47.131Z,38.67
2022-11-26T04:37:48.826Z,39.35
2022-11-26T04:38:50.598Z,39.53
2022-11-26T04:39:52.246Z,40.75
2022-11-26T04:40:53.948Z,32.08
2022-11-26T04:41:55.511Z,41.28
2022-11-26T04:42:57.085Z,36.22
2022-11-26T04:43:58.688Z,34.80
2022-11-26T04:45:00.288Z,46.30
2022-11-26T04:46:02.107Z,36.97
2022-11-26T04:47:03.781Z,41.50
2022-11-26T04:48:06.122Z,39.00
2022-11-26T04:49:07.728Z,36.83
2022-11-26T04:50:10.238Z,30.98
2022-11-26T04:51:11.808Z,31.52
2022-11-26T04:52:13.487Z,26.63
2022-11-26T04:53:15.518Z,24.30
2022-11-26T04:54:17.135Z,28.52
2022-11-26T04:55:18.975Z,30.13
2022-11-26T04:56:20.575Z,34.83
2022-11-26T04:57:22.197Z,30.23
2022-11-26T04:58:28.561Z,31.38
2022-11-26T04:59:30.189Z,36.40
2022-11-26T05:00:31.823Z,35.90
2022-11-26T05:01:33.524Z,33.30
2022-11-26T05:02:35.455Z,38.00
2022-11-26T05:03:37.119Z,27.80
2022-11-26T05:04:38.958Z,27.33
2022-11-26T05:05:40.955Z,29.85
2022-11-26T05:06:42.547Z,26.35
2022-11-26T05:07:44.213Z,34.28
2022-11-26T05:08:45.894Z,25.70
2022-11-26T05:09:47.550Z,24.48
2022-11-26T05:10:54.208Z,26.55
2022-11-26T05:11:55.791Z,25.33
2022-11-26T05:12:57.356Z,28.10
2022-11-26T05:13:58.957Z,24.25
2022-11-26T05:15:00.545Z,21.65
2022-11-26T05:16:02.132Z,27.83
2022-11-26T05:17:03.757Z,29.02
2022-11-26T05:18:05.522Z,25.00
2022-11-26T05:19:07.105Z,27.90
2022-11-26T05:20:09.299Z,36.40
2022-11-26T05:21:10.911Z,29.08
2022-11-26T05:22:12.575Z,24.58
2022-11-26T05:23:14.197Z,18.92
2022-11-26T05:24:15.769Z,25.15
2022-11-26T05:25:17.464Z,29.80
2022-11-26T05:26:19.249Z,21.40
2022-11-26T05:27:20.836Z,28.90
2022-11-26T05:28:22.389Z,22.70
2022-11-26T05:29:24.491Z,26.48
2022-11-26T05:30:26.098Z,24.77
2022-11-26T05:31:29.150Z,26.80
2022-11-26T05:32:30.784Z,25.77
2022-11-26T05:33:32.407Z,22.55
2022-11-26T05:34:34.031Z,18.90
2022-11-26T05:35:37.197Z,21.30
2022-11-26T05:36:38.817Z,22.17
2022-11-26T05:37:40.419Z,24.17
2022-11-26T05:38:42.015Z,27.50
2022-11-26T05:39:43.625Z,22.92
2022-11-26T05:40:45.215Z,21.35
2022-11-26T05:41:46.836Z,22.73
2022-11-26T05:42:48.428Z,24.75
2022-11-26T05:43:50.054Z,22.45
2022-11-26T05:44:51.641Z,22.58
2022-11-26T05:45:53.306Z,23.88
2022-11-26T05:46:54.980Z,22.80
2022-11-26T05:47:56.547Z,21.55
2022-11-26T05:48:58.111Z,29.15
2022-11-26T05:49:59.708Z,35.58
2022-11-26T05:51:02.301Z,26.35
2022-11-26T05:52:04.220Z,22.55
2022-11-26T05:53:05.964Z,29.20
2022-11-26T05:54:07.680Z,33.90
2022-11-26T05:55:09.924Z,26.45
2022-11-26T05:56:11.528Z,23.67
2022-11-26T05:57:13.245Z,31.02
2022-11-26T05:58:14.833Z,35.38
2022-11-26T05:59:16.477Z,33.20
2022-11-26T06:00:18.368Z,37.45
2022-11-26T06:01:19.961Z,39.65
2022-11-26T06:02:21.832Z,33.72
2022-11-26T06:03:23.560Z,30.00
2022-11-26T06:04:25.283Z,36.47
2022-11-26T06:05:26.900Z,47.35
2022-11-26T06:06:28.534Z,30.83
2022-11-26T06:07:30.254Z,37.33
2022-11-26T06:08:31.906Z,36.60
2022-11-26T06:09:33.680Z,32.72
2022-11-26T06:10:35.384Z,38.67
2022-11-26T06:11:36.997Z,38.90
2022-11-26T06:12:38.776Z,41.17
2022-11-26T06:13:40.374Z,42.75
2022-11-26T06:14:43.614Z,49.00
2022-11-26T06:15:45.665Z,46.97
2022-11-26T06:16:47.532Z,46.53
2022-11-26T06:17:49.225Z,38.05
2022-11-26T06:18:50.793Z,41.72
2022-11-26T06:19:52.457Z,42.92
2022-11-26T06:20:54.399Z,37.10
2022-11-26T06:21:56.016Z,37.28
2022-11-26T06:22:57.680Z,35.80
2022-11-26T06:23:59.959Z,35.13
2022-11-26T06:25:01.652Z,34.67
2022-11-26T06:26:10.204Z,40.53
2022-11-26T06:27:11.855Z,38.05
2022-11-26T06:28:13.692Z,36.00
2022-11-26T06:29:15.544Z,36.35
2022-11-26T06:30:17.158Z,37.33
2022-11-26T06:31:18.810Z,42.58
2022-11-26T06:32:20.425Z,37.03
2022-11-26T06:33:22.127Z,40.88
2022-11-26T06:34:23.804Z,33.20
2022-11-26T06:35:25.431Z,34.58
2022-11-26T06:36:27.125Z,36.35
2022-11-26T06:37:28.785Z,33.95
2022-11-26T06:38:30.521Z,40.17
2022-11-26T06:39:32.059Z,31.98
2022-11-26T06:40:33.646Z,35.60
2022-11-26T06:41:35.272Z,39.20
2022-11-26T06:42:36.883Z,39.75
2022-11-26T06:43:38.540Z,37.95
2022-11-26T06:44:40.462Z,36.67
2022-11-26T06:45:42.268Z,37.20
2022-11-26T06:46:43.867Z,27.90
2022-11-26T06:47:49.903Z,31.27
2022-11-26T06:48:51.542Z,34.67
2022-11-26T06:49:53.508Z,41.20
2022-11-26T06:50:55.137Z,35.35
2022-11-26T06:51:56.736Z,39.10
2022-11-26T06:52:58.424Z,32.03
2022-11-26T06:54:00.087Z,29.40
2022-11-26T06:55:01.657Z,56.08
2022-11-26T06:56:04.881Z,43.65
2022-11-26T06:57:06.609Z,46.42
2022-11-26T06:58:08.258Z,40.40
2022-11-26T06:59:09.905Z,48.65
2022-11-26T07:00:12.509Z,38.17
2022-11-26T07:01:18.482Z,39.38
2022-11-26T07:02:20.215Z,39.92
2022-11-26T07:03:24.840Z,34.85
2022-11-26T07:04:27.943Z,48.55
2022-11-26T07:05:29.559Z,34.20
2022-11-26T07:06:32.973Z,44.60
2022-11-26T07:07:37.898Z,38.15
2022-11-26T07:08:39.495Z,31.23
2022-11-26T07:09:41.482Z,41.65
2022-11-26T07:10:48.685Z,35.17
2022-11-26T07:11:50.742Z,39.42
2022-11-26T07:12:52.370Z,41.63
2022-11-26T07:13:54.377Z,40.83
2022-11-26T07:14:56.056Z,40.08
2022-11-26T07:16:02.871Z,32.08
2022-11-26T07:17:04.671Z,40.15
2022-11-26T07:18:06.272Z,34.28
2022-11-26T07:19:10.983Z,35.40
2022-11-26T07:20:13.678Z,39.92
2022-11-26T07:21:15.766Z,38.95
2022-11-26T07:22:17.556Z,36.53
2022-11-26T07:23:19.316Z,48.70
2022-11-26T07:24:20.932Z,39.00
2022-11-26T07:25:22.645Z,42.92
2022-11-26T07:26:24.313Z,37.90
2022-11-26T07:27:25.912Z,40.88
2022-11-26T07:28:28.457Z,31.98
2022-11-26T07:29:30.337Z,35.65
2022-11-26T07:30:32.119Z,35.13
2022-11-26T07:31:33.858Z,38.92
2022-11-26T07:32:35.569Z,46.42
2022-11-26T07:33:37.605Z,34.13
2022-11-26T07:34:39.521Z,46.85
2022-11-26T07:35:41.234Z,31.80
2022-11-26T07:36:43.481Z,37.92
2022-11-26T07:37:45.176Z,37.08
2022-11-26T07:38:47.521Z,30.13
2022-11-26T07:39:49.532Z,40.65
2022-11-26T07:40:51.151Z,37.67
2022-11-26T07:41:52.713Z,37.25
2022-11-26T07:42:54.279Z,34.58
2022-11-26T07:43:55.972Z,41.33
2022-11-26T07:44:57.564Z,42.75
2022-11-26T07:46:02.489Z,33.35
2022-11-26T07:47:04.309Z,32.60
2022-11-26T07:48:06.192Z,33.30
2022-11-26T07:49:08.347Z,43.50
2022-11-26T07:50:10.035Z,40.58
2022-11-26T07:51:21.432Z,32.05
2022-11-26T07:52:23.025Z,36.50
2022-11-26T07:53:24.820Z,35.72
2022-11-26T07:54:26.397Z,40.38
2022-11-26T07:55:28.056Z,35.38
2022-11-26T07:56:29.908Z,37.10
2022-11-26T07:57:32.209Z,33.35
2022-11-26T07:58:33.905Z,38.67
2022-11-26T07:59:35.487Z,48.95
2022-11-26T08:00:37.096Z,38.05
2022-11-26T08:01:38.788Z,46.35
2022-11-26T08:02:40.456Z,35.15
2022-11-26T08:03:44.296Z,34.58
2022-11-26T08:04:45.925Z,37.00
2022-11-26T08:05:47.513Z,37.33
2022-11-26T08:06:49.161Z,35.60
2022-11-26T08:07:50.879Z,26.67
2022-11-26T08:08:53.117Z,31.23
2022-11-26T08:09:54.757Z,58.28
2022-11-26T08:10:56.310Z,36.20
2022-11-26T08:11:57.918Z,37.83
2022-11-26T08:12:59.536Z,36.70
2022-11-26T08:14:04.170Z,32.25
2022-11-26T08:15:06.216Z,37.47
2022-11-26T08:16:07.905Z,35.78
2022-11-26T08:17:09.516Z,34.00
2022-11-26T08:18:11.819Z,38.35
2022-11-26T08:19:15.316Z,36.13
2022-11-26T08:20:17.011Z,40.20
2022-11-26T08:21:18.560Z,33.13
2022-11-26T08:22:20.185Z,33.65
2022-11-26T08:23:21.761Z,41.10
2022-11-26T08:24:23.759Z,36.42
2022-11-26T08:25:25.357Z,44.15
2022-11-26T08:26:35.844Z,46.85
2022-11-26T08:27:40.185Z,42.75
2022-11-26T08:28:45.850Z,31.45
2022-11-26T08:29:47.421Z,29.25
2022-11-26T08:30:49.183Z,33.80
2022-11-26T08:31:51.044Z,36.33
2022-11-26T08:32:52.929Z,36.38
2022-11-26T08:34:01.874Z,41.13
2022-11-26T08:35:03.793Z,35.30
2022-11-26T08:36:08.754Z,35.35
2022-11-26T08:37:10.464Z,38.88
2022-11-26T08:38:12.026Z,35.83
2022-11-26T08:39:17.221Z,31.63
2022-11-26T08:40:18.970Z,30.50
2022-11-26T08:41:20.783Z,29.02
2022-11-26T08:42:22.385Z,32.50
2022-11-26T08:43:34.646Z,29.27
2022-11-26T08:44:45.584Z,23.88
2022-11-26T08:45:58.903Z,29.10
2022-11-26T08:47:00.543Z,23.67
2022-11-26T08:48:02.128Z,23.95
2022-11-26T08:49:04.457Z,31.08
2022-11-26T08:50:06.672Z,31.58
2022-11-26T08:51:11.647Z,26.95
2022-11-26T08:52:13.201Z,27.25
2022-11-26T08:53:15.427Z,26.52
2022-11-26T08:54:17.203Z,28.27
2022-11-26T08:55:23.724Z,30.08
2022-11-26T08:56:25.833Z,24.23
2022-11-26T08:57:27.414Z,29.52
2022-11-26T08:58:29.473Z,30.45
2022-11-26T08:59:31.220Z,30.55
2022-11-26T09:00:32.864Z,27.67
2022-11-26T09:01:34.627Z,29.90
2022-11-26T09:02:36.327Z,22.90
2022-11-26T09:03:41.086Z,35.20
2022-11-26T09:04:42.940Z,34.65
2022-11-26T09:05:45.054Z,42.40
2022-11-26T09:06:46.687Z,40.03
2022-11-26T09:07:49.152Z,24.92
2022-11-26T09:09:09.679Z,29.15
2022-11-26T09:10:11.753Z,28.92
2022-11-26T09:11:13.336Z,25.98
2022-11-26T09:12:14.964Z,28.95
2022-11-26T09:13:20.907Z,30.95
2022-11-26T09:14:27.902Z,41.95
2022-11-26T09:15:29.843Z,36.35
2022-11-26T09:16:31.929Z,99.78
2022-11-26T09:17:33.545Z,44.45
2022-11-26T09:18:35.130Z,40.83
2022-11-26T09:19:36.866Z,32.58
2022-11-26T09:20:38.508Z,25.23
2022-11-26T09:21:40.170Z,25.42
2022-11-26T09:22:41.797Z,23.55
2022-11-26T09:23:43.438Z,30.73
2022-11-26T09:24:45.056Z,27.92
2022-11-26T09:25:49.580Z,21.83
2022-11-26T09:26:51.387Z,29.98
2022-11-26T09:27:52.955Z,23.90
2022-11-26T09:28:54.531Z,18.08
2022-11-26T09:29:56.862Z,29.23
2022-11-26T09:30:59.107Z,22.67
2022-11-26T09:32:22.532Z,30.33
2022-11-26T09:33:23.531Z,25.38
2022-11-26T09:34:25.357Z,33.85
2022-11-26T09:35:27.799Z,32.30
2022-11-26T09:36:30.231Z,44.85
2022-11-26T09:37:32.716Z,27.63
2022-11-26T09:38:35.021Z,32.10
2022-11-26T09:39:41.390Z,31.65
2022-11-26T09:41:03.353Z,27.17
2022-11-26T09:42:19.266Z,27.40
2022-11-26T09:43:31.499Z,23.83
2022-11-26T09:44:40.783Z,19.90
2022-11-26T09:45:49.853Z,16.92
2022-11-26T09:47:32.784Z,18.08
2022-11-26T09:48:35.075Z,20.15
2022-11-26T09:49:52.496Z,16.13
2022-11-26T09:51:04.276Z,16.33
2022-11-26T09:52:09.775Z,19.95
2022-11-26T09:53:26.451Z,19.50
2022-11-26T09:54:30.157Z,21.23
2022-11-26T09:55:35.239Z,25.55
2022-11-26T09:56:38.093Z,14.65
2022-11-26T09:57:48.241Z,23.35
2022-11-26T09:59:02.725Z,24.42
2022-11-26T10:00:06.956Z,21.25
2022-11-26T10:01:17.280Z,19.73
2022-11-26T10:02:19.280Z,12.40
2022-11-26T10:03:24.056Z,26.00
2022-11-26T10:04:31.152Z,20.15
2022-11-26T10:05:47.902Z,20.88
2022-11-26T10:07:15.547Z,15.70
2022-11-26T10:08:48.489Z,24.58
2022-11-26T10:10:00.312Z,21.15
2022-11-26T10:11:20.837Z,19.35
2022-11-26T10:12:31.035Z,14.38
2022-11-26T10:13:46.215Z,19.10
2022-11-26T10:15:06.873Z,25.60
2022-11-26T10:16:25.446Z,21.75
2022-11-26T10:17:35.828Z,19.33
2022-11-26T10:18:45.976Z,14.18
2022-11-26T10:20:28.461Z,14.40
2022-11-26T10:21:58.189Z,11.43
2022-11-26T10:23:21.560Z,11.18
2022-11-26T10:24:33.174Z,17.33
2022-11-26T10:25:42.441Z,15.35
2022-11-26T10:26:44.715Z,18.70
2022-11-26T10:27:49.324Z,16.00
2022-11-26T10:28:56.784Z,15.48
2022-11-26T10:30:09.583Z,17.25
2022-11-26T10:31:27.165Z,17.23
2022-11-26T10:32:38.820Z,20.98
2022-11-26T10:33:54.341Z,14.80
2022-11-26T10:34:57.759Z,15.50
2022-11-26T10:35:59.407Z,12.65
2022-11-26T10:37:01.210Z,19.00
2022-11-26T10:38:02.888Z,25.27
2022-11-26T10:39:07.177Z,22.30
2022-11-26T10:40:26.429Z,21.55
2022-11-26T10:41:35.174Z,22.40
2022-11-26T10:42:42.337Z,21.85
2022-11-26T10:43:44.003Z,20.13
2022-11-26T10:44:46.847Z,18.55
2022-11-26T10:45:54.071Z,22.75
2022-11-26T10:46:57.116Z,21.75
2022-11-26T10:48:23.821Z,14.77
2022-11-26T10:49:29.652Z,16.75
2022-11-26T10:50:50.258Z,11.60
2022-11-26T10:51:56.008Z,18.95
2022-11-26T10:53:05.802Z,20.98
2022-11-26T10:54:27.298Z,11.82
2022-11-26T10:55:39.411Z,18.15
2022-11-26T10:56:46.812Z,18.98
2022-11-26T10:58:16.026Z,16.23
2022-11-26T10:59:19.327Z,18.88
2022-11-26T11:00:39.219Z,28.38
2022-11-26T11:01:41.976Z,18.80
2022-11-26T11:02:48.678Z,23.45
2022-11-26T11:04:13.082Z,28.70
2022-11-26T11:05:20.584Z,19.83
2022-11-26T11:06:28.096Z,14.68
2022-11-26T11:07:36.932Z,24.98
2022-11-26T11:08:38.698Z,17.17
2022-11-26T11:09:40.293Z,19.88
2022-11-26T11:10:55.575Z,23.85
2022-11-26T11:12:11.968Z,17.02
2022-11-26T11:13:13.666Z,22.33
2022-11-26T11:14:29.004Z,15.60
2022-11-26T11:15:33.887Z,15.23
2022-11-26T11:16:43.309Z,18.30
2022-11-26T11:17:46.822Z,14.32
2022-11-26T11:19:02.623Z,16.73
2022-11-26T11:20:16.434Z,23.55
2022-11-26T11:21:19.647Z,22.50
2022-11-26T11:22:22.283Z,20.90
2022-11-26T11:23:40.372Z,20.38
2022-11-26T11:24:48.541Z,16.50
2022-11-26T11:26:02.669Z,16.42
2022-11-26T11:27:04.300Z,15.25
2022-11-26T11:28:12.948Z,19.50
2022-11-26T11:29:29.510Z,15.98
2022-11-26T11:30:34.573Z,15.75
2022-11-26T11:31:47.065Z,22.05
2022-11-26T11:32:48.948Z,13.70
2022-11-26T11:33:51.716Z,16.33
2022-11-26T11:34:53.554Z,20.10
2022-11-26T11:36:01.870Z,18.38
2022-11-26T11:37:15.650Z,20.50
2022-11-26T11:38:23.723Z,15.23
2022-11-26T11:39:33.574Z,22.55
2022-11-26T11:40:41.657Z,15.60
2022-11-26T11:41:47.030Z,17.83
2022-11-26T11:42:52.721Z,16.45
2022-11-26T11:44:16.539Z,13.77
2022-11-26T11:45:41.110Z,15.95
2022-11-26T11:47:01.732Z,14.25
2022-11-26T11:48:29.352Z,16.13
2022-11-26T11:49:30.922Z,16.58
2022-11-26T11:50:49.917Z,15.02
2022-11-26T11:52:10.082Z,15.18
2022-11-26T11:53:20.155Z,12.52
2022-11-26T11:54:29.207Z,18.55
2022-11-26T11:56:02.211Z,19.58
2022-11-26T11:57:16.998Z,13.93
2022-11-26T11:58:31.611Z,10.73
2022-11-26T12:00:10.664Z,21.92
2022-11-26T12:01:47.384Z,12.63
2022-11-26T12:03:10.656Z,22.02
2022-11-26T12:04:26.460Z,14.35
2022-11-26T12:05:52.784Z,16.80
2022-11-26T12:07:31.587Z,19.88
2022-11-26T12:08:39.090Z,10.30
2022-11-26T12:09:52.708Z,9.50
2022-11-26T12:11:38.747Z,27.92
2022-11-26T12:12:48.232Z,37.13
2022-11-26T12:14:02.285Z,19.38
2022-11-26T12:15:10.680Z,24.27
2022-11-26T12:16:16.288Z,14.13
2022-11-26T12:17:33.446Z,17.07
2022-11-26T12:19:02.841Z,8.57
2022-11-26T12:20:30.354Z,14.13
2022-11-26T12:21:41.695Z,10.80
2022-11-26T12:22:58.949Z,13.80
2022-11-26T12:24:06.683Z,15.93
2022-11-26T12:25:35.354Z,15.10
2022-11-26T12:26:49.824Z,17.73
2022-11-26T12:28:06.782Z,11.57
2022-11-26T12:29:29.032Z,13.13
2022-11-26T12:30:50.444Z,14.43
2022-11-26T12:31:58.358Z,11.83
2022-11-26T12:33:06.959Z,29.53
2022-11-26T12:34:22.275Z,17.77
2022-11-26T12:35:35.435Z,17.20
2022-11-26T12:36:43.270Z,14.13
2022-11-26T12:37:49.321Z,10.10
2022-11-26T12:38:58.874Z,10.87
2022-11-26T12:40:31.542Z,9.67
2022-11-26T12:41:59.290Z,10.93
2022-11-26T12:43:16.584Z,16.43
2022-11-26T12:44:42.642Z,22.27
2022-11-26T12:45:53.525Z,12.10
2022-11-26T12:47:31.694Z,17.80
2022-11-26T12:49:50.582Z,10.88
2022-11-26T12:50:56.932Z,15.15
2022-11-26T12:52:05.068Z,8.65
2022-11-26T12:53:20.138Z,14.70
2022-11-26T12:54:43.768Z,14.70
2022-11-26T12:56:01.276Z,8.07
2022-11-26T12:57:17.865Z,5.45
2022-11-26T12:58:29.075Z,11.50
2022-11-26T12:59:45.449Z,12.68
2022-11-26T13:00:49.605Z,10.13
2022-11-26T13:01:51.478Z,11.82
2022-11-26T13:02:53.738Z,15.15
2022-11-26T13:04:14.757Z,13.55
2022-11-26T13:05:29.259Z,10.43
2022-11-26T13:06:33.552Z,6.47
2022-11-26T13:07:50.849Z,19.77
2022-11-26T13:09:04.438Z,14.88
2022-11-26T13:10:16.013Z,14.50
2022-11-26T13:11:43.193Z,9.80
2022-11-26T13:12:59.871Z,11.63
2022-11-26T13:14:01.484Z,12.10
2022-11-26T13:15:29.584Z,22.20
2022-11-26T13:16:45.981Z,15.50
2022-11-26T13:17:49.292Z,13.80
2022-11-26T13:19:00.643Z,13.38
2022-11-26T13:20:31.835Z,13.88
2022-11-26T13:22:11.712Z,12.00
2022-11-26T13:23:25.782Z,13.68
2022-11-26T13:24:43.992Z,14.73
2022-11-26T13:25:58.793Z,13.65
2022-11-26T13:27:15.432Z,15.45
2022-11-26T13:28:29.208Z,16.98
2022-11-26T13:29:55.487Z,14.68
2022-11-26T13:31:23.424Z,9.82
2022-11-26T13:32:39.900Z,11.07
2022-11-26T13:33:41.450Z,11.85
2022-11-26T13:35:10.801Z,15.23
2022-11-26T13:36:25.242Z,15.82
2022-11-26T13:37:44.911Z,16.33
2022-11-26T13:39:03.203Z,24.92
2022-11-26T13:40:22.884Z,15.18
2022-11-26T13:41:46.879Z,10.38
2022-11-26T13:43:06.250Z,14.60
2022-11-26T13:44:23.162Z,12.07
2022-11-26T13:45:58.489Z,18.65
2022-11-26T13:47:03.494Z,15.85
2022-11-26T13:48:09.448Z,22.70
2022-11-26T13:49:33.189Z,19.35
2022-11-26T13:51:09.407Z,9.65
2022-11-26T13:52:23.691Z,19.05
2022-11-26T13:53:33.551Z,11.95
2022-11-26T13:54:47.737Z,14.48
2022-11-26T13:55:57.789Z,22.52
2022-11-26T13:57:08.713Z,9.32
2022-11-26T13:58:20.959Z,17.33
2022-11-26T13:59:38.997Z,11.40
2022-11-26T14:00:40.735Z,11.85
2022-11-26T14:01:42.989Z,11.75
2022-11-26T14:02:46.692Z,10.55
2022-11-26T14:03:49.420Z,14.95
2022-11-26T14:04:52.589Z,40.95
2022-11-26T14:05:57.221Z,41.05
2022-11-26T14:07:04.560Z,21.95
2022-11-26T14:08:35.697Z,24.50
2022-11-26T14:09:46.122Z,17.48
2022-11-26T14:10:47.853Z,15.73
2022-11-26T14:11:54.260Z,18.48
2022-11-26T14:13:02.183Z,14.73
2022-11-26T14:14:25.741Z,13.18
2022-11-26T14:15:42.651Z,14.98
2022-11-26T14:17:02.654Z,12.75
2022-11-26T14:18:05.037Z,18.70